Terminal Aerodrome Forecast
Issued by NWS Cleveland, OH

Home | Current Version | Previous Version | Graphics & Text | Print | Product List | Glossary On
Versions: 1 2 3 4 5 6 7 8 9 10 11 12 13 14 15 16 17 18 19 20
000
FTUS41 KCLE 041100
TAFYNG
TAF
KYNG 041127Z 0412/0512 18008KT P6SM FEW100 SCT250
     FM041500 21012G20KT P6SM SCT100 BKN250
     FM042300 22012G20KT P6SM VCTS OVC050CB
      TEMPO 0501/0503 1 1/2SM -TSRA BR BKN025CB OVC035
     FM050400 23008KT P6SM VCSH SCT025 OVC035=

USA.gov is the U.S. government's official web portal to all federal, state and local government web resources and services.